createdAt,value
2023-05-09T00:01:32.091Z,101201.69
2023-05-09T00:04:35.447Z,101194.22
2023-05-09T00:07:38.312Z,101200.38
2023-05-09T00:10:41.134Z,101194.13
2023-05-09T00:13:44.275Z,101198.16
2023-05-09T00:16:47.140Z,101195.38
2023-05-09T00:19:51.136Z,101188.12
2023-05-09T00:22:55.210Z,101188.66
2023-05-09T00:25:58.417Z,101186.81
2023-05-09T00:29:01.123Z,101186.25
2023-05-09T00:35:07.785Z,101185.91
2023-05-09T00:38:10.469Z,101181.59
2023-05-09T00:41:13.319Z,101177.56
2023-05-09T00:44:15.807Z,101175.31
2023-05-09T00:47:19.105Z,101180.72
2023-05-09T00:50:21.974Z,101184.84
2023-05-09T00:53:25.383Z,101182.44
2023-05-09T00:56:28.366Z,101182.22
2023-05-09T00:59:31.925Z,101179.25
2023-05-09T01:02:34.474Z,101175.63
2023-05-09T01:05:50.030Z,101175.19
2023-05-09T01:09:17.523Z,101182.94
2023-05-09T01:12:26.073Z,101181.38
2023-05-09T01:15:34.361Z,101182.22
2023-05-09T01:18:51.922Z,101184.38
2023-05-09T01:21:56.831Z,101177.97
2023-05-09T01:25:24.876Z,101180.91
2023-05-09T01:28:55.068Z,101178.31
2023-05-09T01:32:01.046Z,101183.09
2023-05-09T01:35:05.218Z,101177.06
2023-05-09T01:38:13.497Z,101177.66
2023-05-09T01:41:18.126Z,101184.50
2023-05-09T01:44:22.650Z,101176.44
2023-05-09T01:47:26.397Z,101177.75
2023-05-09T01:50:32.957Z,101173.97
2023-05-09T01:53:36.111Z,101170.13
2023-05-09T01:56:41.036Z,101167.53
2023-05-09T01:59:45.575Z,101171.34
2023-05-09T02:02:49.427Z,101168.16
2023-05-09T02:05:53.198Z,101174.12
2023-05-09T02:08:56.955Z,101168.97
2023-05-09T02:12:02.030Z,101160.72
2023-05-09T02:15:06.572Z,101156.91
2023-05-09T02:18:09.669Z,101156.31
2023-05-09T02:21:12.917Z,101164.34
2023-05-09T02:24:15.609Z,101158.38
2023-05-09T02:27:20.673Z,101146.50
2023-05-09T02:30:27.632Z,101155.34
2023-05-09T02:33:31.453Z,101150.28
2023-05-09T02:36:35.062Z,101151.13
2023-05-09T02:39:37.940Z,101154.88
2023-05-09T02:42:40.574Z,101148.38
2023-05-09T02:45:43.879Z,101143.22
2023-05-09T02:48:46.473Z,101139.72
2023-05-09T02:51:49.259Z,101145.84
2023-05-09T02:54:51.812Z,101148.03
2023-05-09T02:58:09.193Z,101146.22
2023-05-09T03:01:15.889Z,101145.78
2023-05-09T03:04:19.854Z,101147.56
2023-05-09T03:07:22.533Z,101148.06
2023-05-09T03:10:25.472Z,101146.88
2023-05-09T03:13:28.128Z,101144.34
2023-05-09T03:16:32.758Z,101145.06
2023-05-09T03:19:35.616Z,101149.16
2023-05-09T03:22:38.746Z,101140.53
2023-05-09T03:25:42.189Z,101138.16
2023-05-09T03:28:45.976Z,101128.34
2023-05-09T03:31:48.808Z,101138.31
2023-05-09T03:34:51.791Z,101145.37
2023-05-09T03:37:54.339Z,101150.19
2023-05-09T03:40:57.387Z,101147.78
2023-05-09T03:44:00.628Z,101148.97
2023-05-09T03:47:03.515Z,101146.94
2023-05-09T03:50:07.922Z,101150.88
2023-05-09T03:53:11.437Z,101159.59
2023-05-09T03:56:14.541Z,101167.25
2023-05-09T03:59:18.134Z,101164.22
2023-05-09T04:02:21.087Z,101157.88
2023-05-09T04:05:24.394Z,101161.69
2023-05-09T04:08:27.807Z,101160.34
2023-05-09T04:11:30.660Z,101154.56
2023-05-09T04:14:33.708Z,101156.94
2023-05-09T04:17:36.741Z,101161.72
2023-05-09T04:20:39.583Z,101150.78
2023-05-09T04:23:43.700Z,101157.59
2023-05-09T04:26:46.792Z,101157.19
2023-05-09T04:29:49.911Z,101160.44
2023-05-09T04:32:53.572Z,101159.50
2023-05-09T04:35:57.845Z,101156.31
2023-05-09T04:39:01.100Z,101161.53
2023-05-09T04:42:05.209Z,101165.34
2023-05-09T04:45:08.443Z,101167.25
2023-05-09T04:48:11.894Z,101163.50
2023-05-09T04:51:14.369Z,101170.09
2023-05-09T04:54:17.493Z,101166.81
2023-05-09T04:57:21.329Z,101168.63
2023-05-09T05:00:24.904Z,101157.38
2023-05-09T05:03:27.461Z,101160.06
2023-05-09T05:06:31.785Z,101170.00
2023-05-09T05:09:35.058Z,101162.06
2023-05-09T05:12:38.164Z,101159.72
2023-05-09T05:15:43.274Z,101169.25
2023-05-09T05:18:46.337Z,101168.72
2023-05-09T05:21:49.308Z,101166.25
2023-05-09T05:24:52.461Z,101170.84
2023-05-09T05:27:55.351Z,101170.75
2023-05-09T05:30:58.194Z,101163.56
2023-05-09T05:34:00.739Z,101168.44
2023-05-09T05:37:04.759Z,101167.62
2023-05-09T05:40:08.222Z,101172.09
2023-05-09T05:43:12.190Z,101169.72
2023-05-09T05:46:15.109Z,101162.34
2023-05-09T05:49:18.519Z,101162.47
2023-05-09T05:52:21.261Z,101163.00
2023-05-09T05:55:24.221Z,101162.03
2023-05-09T05:58:26.912Z,101165.50
2023-05-09T06:01:29.738Z,101166.22
2023-05-09T06:04:33.912Z,101157.00
2023-05-09T06:07:37.007Z,101164.50
2023-05-09T06:10:40.102Z,101163.66
2023-05-09T06:13:42.676Z,101165.78
2023-05-09T06:16:46.548Z,101166.47
2023-05-09T06:19:49.942Z,101168.94
2023-05-09T06:22:52.777Z,101169.94
2023-05-09T06:25:55.504Z,101164.56
2023-05-09T06:28:58.402Z,101157.91
2023-05-09T06:32:01.083Z,101161.47
2023-05-09T06:35:04.126Z,101156.75
2023-05-09T06:38:07.107Z,101155.13
2023-05-09T06:41:10.040Z,101155.59
2023-05-09T06:44:12.521Z,101144.59
2023-05-09T06:47:15.527Z,101148.28
2023-05-09T06:50:18.226Z,101147.91
2023-05-09T06:53:21.187Z,101141.19
2023-05-09T06:56:25.359Z,101140.69
2023-05-09T06:59:28.296Z,101148.97
2023-05-09T07:02:31.099Z,101146.84
2023-05-09T07:05:34.544Z,101135.13
2023-05-09T07:08:37.183Z,101128.16
2023-05-09T07:11:40.066Z,101125.88
2023-05-09T07:14:42.500Z,101125.47
2023-05-09T07:17:45.362Z,101136.97
2023-05-09T07:20:48.052Z,101135.28
2023-05-09T07:23:50.961Z,101120.56
2023-05-09T07:26:53.701Z,101118.16
2023-05-09T07:29:56.567Z,101110.97
2023-05-09T07:32:59.192Z,101108.84
2023-05-09T07:36:02.083Z,101112.78
2023-05-09T07:39:04.989Z,101106.25
2023-05-09T07:42:08.510Z,101107.13
2023-05-09T07:45:11.115Z,101106.34
2023-05-09T07:48:13.932Z,101106.34
2023-05-09T07:51:16.562Z,101086.03
2023-05-09T07:54:19.420Z,101091.59
2023-05-09T07:57:22.799Z,101086.03
2023-05-09T08:00:25.921Z,101084.19
2023-05-09T08:03:28.792Z,101090.06
2023-05-09T08:06:31.436Z,101078.84
2023-05-09T08:09:34.517Z,101077.16
2023-05-09T08:12:37.103Z,101076.72
2023-05-09T08:15:39.940Z,101068.94
2023-05-09T08:18:42.517Z,101065.31
2023-05-09T08:21:45.617Z,101076.31
2023-05-09T08:24:48.228Z,101074.41
2023-05-09T08:27:52.970Z,101057.59
2023-05-09T08:30:56.941Z,101055.22
2023-05-09T08:33:59.897Z,101053.69
2023-05-09T08:37:03.177Z,101061.25
2023-05-09T08:40:10.184Z,101060.56
2023-05-09T08:43:14.314Z,101046.28
2023-05-09T08:46:18.833Z,101049.91
2023-05-09T08:49:21.537Z,101051.56
2023-05-09T08:52:24.719Z,101049.06
2023-05-09T08:55:28.471Z,101041.31
2023-05-09T08:58:32.013Z,101049.16
2023-05-09T09:01:37.848Z,101036.31
2023-05-09T09:04:41.051Z,101035.12
2023-05-09T09:07:44.975Z,101043.06
2023-05-09T09:10:48.364Z,101043.63
2023-05-09T09:13:54.964Z,101028.44
2023-05-09T09:16:58.711Z,101023.53
2023-05-09T09:20:05.791Z,101027.78
2023-05-09T09:23:10.640Z,101021.62
2023-05-09T09:26:13.719Z,101032.06
2023-05-09T09:29:18.683Z,101020.66
2023-05-09T09:32:32.263Z,101034.13
2023-05-09T09:35:39.280Z,101027.09
2023-05-09T09:38:45.679Z,101008.72
2023-05-09T09:41:48.783Z,101023.50
2023-05-09T09:44:57.635Z,101031.72
2023-05-09T09:48:07.411Z,101034.56
2023-05-09T09:51:11.558Z,101013.56
2023-05-09T09:54:15.056Z,101023.81
2023-05-09T09:57:38.338Z,101025.59
2023-05-09T10:00:41.543Z,101016.00
2023-05-09T10:03:47.148Z,101021.22
2023-05-09T10:06:58.218Z,101019.38
2023-05-09T10:10:06.066Z,101004.28
2023-05-09T10:13:12.102Z,101003.47
2023-05-09T10:16:21.365Z,100997.84
2023-05-09T10:19:30.190Z,101002.72
2023-05-09T10:22:34.592Z,100996.16
2023-05-09T10:25:46.918Z,100994.94
2023-05-09T10:28:54.809Z,100981.28
2023-05-09T10:32:00.452Z,101000.13
2023-05-09T10:35:07.005Z,101001.06
2023-05-09T10:38:12.533Z,100989.16
2023-05-09T10:41:17.307Z,100988.53
2023-05-09T10:44:23.226Z,100976.56
2023-05-09T10:47:28.086Z,100985.00
2023-05-09T10:50:31.474Z,100972.25
2023-05-09T10:53:48.790Z,100980.75
2023-05-09T10:56:51.932Z,100978.63
2023-05-09T10:59:56.708Z,100984.06
2023-05-09T11:03:06.440Z,100980.22
2023-05-09T11:06:09.439Z,100975.53
2023-05-09T11:09:33.038Z,100974.81
2023-05-09T11:12:56.180Z,100980.06
2023-05-09T11:16:03.221Z,100978.38
2023-05-09T11:19:08.311Z,100967.62
2023-05-09T11:22:17.920Z,100964.84
2023-05-09T11:25:29.241Z,100961.03
2023-05-09T11:28:37.648Z,100955.84
2023-05-09T11:32:07.815Z,100949.44
2023-05-09T11:35:22.032Z,100951.00
2023-05-09T11:38:45.306Z,100932.59
2023-05-09T11:41:51.206Z,100938.94
2023-05-09T11:44:58.585Z,100937.88
2023-05-09T11:48:09.246Z,100925.41
2023-05-09T11:51:19.390Z,100937.91
2023-05-09T11:54:24.397Z,100930.38
2023-05-09T11:57:29.198Z,100931.38
2023-05-09T12:00:32.097Z,100928.72
2023-05-09T12:03:34.994Z,100929.84
2023-05-09T12:06:37.810Z,100925.19
2023-05-09T12:09:40.922Z,100916.03
2023-05-09T12:12:45.927Z,100920.38
2023-05-09T12:15:49.110Z,100910.69
2023-05-09T12:18:54.420Z,100907.91
2023-05-09T12:22:02.950Z,100905.44
2023-05-09T12:25:07.834Z,100905.34
2023-05-09T12:28:11.069Z,100901.03
2023-05-09T12:31:13.935Z,100889.28
2023-05-09T12:34:17.217Z,100895.19
2023-05-09T12:37:20.049Z,100876.34
2023-05-09T12:40:23.444Z,100892.34
2023-05-09T12:43:26.113Z,100885.25
2023-05-09T12:46:29.007Z,100889.69
2023-05-09T12:49:32.316Z,100892.69
2023-05-09T12:52:54.154Z,100887.59
2023-05-09T12:56:12.240Z,100869.84
2023-05-09T12:59:20.946Z,100865.75
2023-05-09T13:02:25.592Z,100860.00
2023-05-09T13:05:28.866Z,100851.81
2023-05-09T13:08:31.801Z,100856.12
2023-05-09T13:11:35.392Z,100847.06
2023-05-09T13:14:38.216Z,100837.34
2023-05-09T13:17:41.156Z,100847.37
2023-05-09T13:20:43.744Z,100845.84
2023-05-09T13:23:46.576Z,100847.37
2023-05-09T13:26:49.198Z,100838.69
2023-05-09T13:29:52.068Z,100837.13
2023-05-09T13:32:54.645Z,100834.28
2023-05-09T13:35:57.538Z,100833.66
2023-05-09T13:39:00.006Z,100843.13
2023-05-09T13:42:04.024Z,100835.34
2023-05-09T13:45:07.109Z,100826.91
2023-05-09T13:48:09.991Z,100820.31
2023-05-09T13:51:12.576Z,100825.56
2023-05-09T13:54:17.445Z,100813.56
2023-05-09T13:57:20.105Z,100810.25
2023-05-09T14:00:25.495Z,100806.72
2023-05-09T14:03:28.348Z,100794.47
2023-05-09T14:06:31.006Z,100804.94
2023-05-09T14:09:40.084Z,100783.78
2023-05-09T14:12:47.193Z,100778.84
2023-05-09T14:15:50.149Z,100784.81
2023-05-09T14:18:52.795Z,100786.75
2023-05-09T14:21:56.088Z,100784.03
2023-05-09T14:24:58.665Z,100779.50
2023-05-09T14:28:01.637Z,100778.59
2023-05-09T14:31:04.434Z,100772.19
2023-05-09T14:34:07.334Z,100759.66
2023-05-09T14:37:13.602Z,100758.78
2023-05-09T14:40:16.774Z,100766.50
2023-05-09T14:43:19.544Z,100756.50
2023-05-09T14:46:24.867Z,100757.34
2023-05-09T14:49:27.712Z,100769.50
2023-05-09T14:52:30.548Z,100753.56
2023-05-09T14:55:33.451Z,100764.09
2023-05-09T14:58:36.296Z,100754.06
2023-05-09T15:01:39.170Z,100754.09
2023-05-09T15:04:43.826Z,100746.88
2023-05-09T15:07:46.558Z,100751.78
2023-05-09T15:10:50.902Z,100742.78
2023-05-09T15:13:53.799Z,100751.44
2023-05-09T15:16:59.262Z,100733.72
2023-05-09T15:20:02.968Z,100735.16
2023-05-09T15:23:07.482Z,100731.22
2023-05-09T15:26:12.336Z,100725.37
2023-05-09T15:29:15.175Z,100738.41
2023-05-09T15:32:17.837Z,100725.25
2023-05-09T15:35:20.743Z,100724.09
2023-05-09T15:38:23.442Z,100723.47
2023-05-09T15:41:26.185Z,100716.62
2023-05-09T15:44:28.690Z,100707.97
2023-05-09T15:47:31.592Z,100714.81
2023-05-09T15:50:34.312Z,100716.34
2023-05-09T15:53:37.289Z,100705.63
2023-05-09T15:56:39.858Z,100708.72
2023-05-09T15:59:42.667Z,100701.69
2023-05-09T16:02:45.616Z,100700.84
2023-05-09T16:05:48.574Z,100700.09
2023-05-09T16:08:51.081Z,100692.47
2023-05-09T16:11:54.012Z,100697.75
2023-05-09T16:14:56.576Z,100694.19
2023-05-09T16:17:59.375Z,100691.88
2023-05-09T16:21:02.057Z,100697.31
2023-05-09T16:24:05.758Z,100694.06
2023-05-09T16:27:08.281Z,100697.03
2023-05-09T16:30:11.526Z,100701.87
2023-05-09T16:33:14.532Z,100697.53
2023-05-09T16:36:17.699Z,100689.13
2023-05-09T16:39:20.299Z,100690.19
2023-05-09T16:42:23.209Z,100687.81
2023-05-09T16:45:25.826Z,100675.50
2023-05-09T16:48:28.737Z,100672.03
2023-05-09T16:51:31.284Z,100674.91
2023-05-09T16:54:34.073Z,100674.91
2023-05-09T16:57:36.606Z,100674.44
2023-05-09T17:00:39.503Z,100667.44
2023-05-09T17:03:42.060Z,100672.75
2023-05-09T17:06:44.854Z,100666.91
2023-05-09T17:09:48.667Z,100675.28
2023-05-09T17:12:51.883Z,100669.25
2023-05-09T17:15:54.399Z,100669.91
2023-05-09T17:18:57.328Z,100675.19
2023-05-09T17:22:04.246Z,100668.56
2023-05-09T17:25:07.671Z,100676.19
2023-05-09T17:28:10.206Z,100672.50
2023-05-09T17:31:13.305Z,100669.34
2023-05-09T17:34:15.911Z,100669.47
2023-05-09T17:37:18.700Z,100666.53
2023-05-09T17:40:21.423Z,100664.44
2023-05-09T17:43:24.337Z,100662.88
2023-05-09T17:46:27.401Z,100667.09
2023-05-09T17:49:30.444Z,100659.06
2023-05-09T17:52:33.928Z,100664.25
2023-05-09T17:55:36.807Z,100664.94
2023-05-09T17:58:39.380Z,100665.00
2023-05-09T18:01:42.194Z,100672.78
2023-05-09T18:04:46.329Z,100666.22
2023-05-09T18:07:49.582Z,100670.66
2023-05-09T18:10:54.605Z,100664.28
2023-05-09T18:13:57.061Z,100663.34
2023-05-09T18:16:59.928Z,100667.13
2023-05-09T18:20:03.490Z,100668.34
2023-05-09T18:23:06.350Z,100673.72
2023-05-09T18:26:08.848Z,100677.63
2023-05-09T18:29:11.735Z,100676.78
2023-05-09T18:32:14.360Z,100681.47
2023-05-09T18:35:17.253Z,100673.31
2023-05-09T18:38:19.936Z,100682.84
2023-05-09T18:41:24.132Z,100684.66
2023-05-09T18:44:26.606Z,100688.22
2023-05-09T18:47:29.491Z,100687.69
2023-05-09T18:50:32.589Z,100690.59
2023-05-09T18:53:35.482Z,100697.84
2023-05-09T18:56:39.666Z,100688.25
2023-05-09T18:59:42.813Z,100697.91
2023-05-09T19:02:45.858Z,100699.09
2023-05-09T19:05:49.012Z,100698.50
2023-05-09T19:08:53.853Z,100704.19
2023-05-09T19:11:58.463Z,100699.22
2023-05-09T19:15:02.328Z,100701.09
2023-05-09T19:18:05.821Z,100705.50
2023-05-09T19:21:09.445Z,100705.50
2023-05-09T19:24:12.698Z,100708.81
2023-05-09T19:27:15.642Z,100700.09
2023-05-09T19:30:20.436Z,100696.56
2023-05-09T19:33:23.533Z,100699.56
2023-05-09T19:36:26.759Z,100694.84
2023-05-09T19:39:29.798Z,100702.28
2023-05-09T19:42:34.073Z,100701.50
2023-05-09T19:45:37.132Z,100703.69
2023-05-09T19:48:40.333Z,100697.94
2023-05-09T19:51:43.584Z,100696.59
2023-05-09T19:54:46.853Z,100693.81
2023-05-09T19:57:49.615Z,100697.19
2023-05-09T20:00:52.672Z,100691.34
2023-05-09T20:03:56.839Z,100690.25
2023-05-09T20:06:59.454Z,100690.59
2023-05-09T20:10:02.378Z,100685.75
2023-05-09T20:13:05.094Z,100690.44
2023-05-09T20:16:08.006Z,100691.44
2023-05-09T20:19:14.151Z,100694.94
2023-05-09T20:22:17.172Z,100684.81
2023-05-09T20:25:20.035Z,100687.97
2023-05-09T20:28:23.032Z,100690.94
2023-05-09T20:31:25.695Z,100685.31
2023-05-09T20:34:28.457Z,100688.50
2023-05-09T20:37:31.252Z,100690.16
2023-05-09T20:40:34.174Z,100687.31
2023-05-09T20:43:36.689Z,100680.34
2023-05-09T20:46:40.347Z,100674.72
2023-05-09T20:49:42.840Z,100673.69
2023-05-09T20:52:45.654Z,100678.16
2023-05-09T20:55:50.337Z,100675.50
2023-05-09T20:58:53.358Z,100676.34
2023-05-09T21:01:56.070Z,100667.69
2023-05-09T21:04:58.950Z,100667.19
2023-05-09T21:08:01.764Z,100675.34
2023-05-09T21:11:04.521Z,100671.84
2023-05-09T21:14:08.322Z,100667.53
2023-05-09T21:17:11.082Z,100671.19
2023-05-09T21:20:14.040Z,100665.72
2023-05-09T21:23:18.636Z,100663.25
2023-05-09T21:26:23.105Z,100666.19
2023-05-09T21:29:26.179Z,100666.22
2023-05-09T21:32:28.725Z,100663.56
2023-05-09T21:35:31.628Z,100667.53
2023-05-09T21:38:34.099Z,100661.41
2023-05-09T21:41:38.484Z,100658.56
2023-05-09T21:44:40.995Z,100655.72
2023-05-09T21:47:44.049Z,100662.03
2023-05-09T21:50:46.752Z,100664.69
2023-05-09T21:53:49.527Z,100664.69
2023-05-09T21:56:52.007Z,100660.66
2023-05-09T21:59:56.164Z,100661.00
2023-05-09T22:02:59.084Z,100666.50
2023-05-09T22:06:01.894Z,100652.34
2023-05-09T22:09:05.472Z,100663.50
2023-05-09T22:12:08.876Z,100659.50
2023-05-09T22:15:11.495Z,100665.16
2023-05-09T22:18:14.329Z,100654.72
2023-05-09T22:21:16.833Z,100657.69
2023-05-09T22:24:19.583Z,100659.19
2023-05-09T22:27:22.122Z,100648.56
2023-05-09T22:30:25.052Z,100648.19
2023-05-09T22:33:27.885Z,100652.19
2023-05-09T22:36:31.987Z,100653.34
2023-05-09T22:39:34.595Z,100652.34
2023-05-09T22:42:37.478Z,100651.50
2023-05-09T22:45:40.049Z,100659.44
2023-05-09T22:48:42.906Z,100654.47
2023-05-09T22:51:45.750Z,100646.81
2023-05-09T22:54:48.561Z,100646.44
2023-05-09T22:57:51.087Z,100648.91
2023-05-09T23:00:54.002Z,100650.75
2023-05-09T23:03:56.534Z,100639.78
2023-05-09T23:07:17.780Z,100645.41
2023-05-09T23:10:38.889Z,100647.59
2023-05-09T23:13:42.285Z,100638.56
2023-05-09T23:16:44.812Z,100631.13
2023-05-09T23:19:47.619Z,100636.75
2023-05-09T23:22:50.443Z,100629.59
2023-05-09T23:25:53.349Z,100633.09
2023-05-09T23:28:55.950Z,100628.59
2023-05-09T23:31:59.059Z,100632.63
2023-05-09T23:35:01.604Z,100628.97
2023-05-09T23:38:04.748Z,100631.34
2023-05-09T23:41:07.368Z,100624.03
2023-05-09T23:44:12.254Z,100618.53
2023-05-09T23:47:14.802Z,100613.03
2023-05-09T23:50:17.949Z,100608.75
2023-05-09T23:53:20.719Z,100610.75
2023-05-09T23:56:23.619Z,100608.44
2023-05-09T23:59:26.235Z,100613.31
